sensor_id;sensor_type;location;lat;lon;timestamp;temperature;humidity
39849;DHT22;25518;47.878;15.914;2023-02-11T00:01:15;-2.50;99.90
39849;DHT22;25518;47.878;15.914;2023-02-11T00:04:08;-2.50;99.90
39849;DHT22;25518;47.878;15.914;2023-02-11T00:06:57;-2.70;99.90
39849;DHT22;25518;47.878;15.914;2023-02-11T00:09:47;-2.70;99.90
39849;DHT22;25518;47.878;15.914;2023-02-11T00:12:37;-2.70;99.90
39849;DHT22;25518;47.878;15.914;2023-02-11T00:15:27;-2.70;99.90
39849;DHT22;25518;47.878;15.914;2023-02-11T00:18:17;-2.70;99.90
39849;DHT22;25518;47.878;15.914;2023-02-11T00:21:09;-2.60;99.90
39849;DHT22;25518;47.878;15.914;2023-02-11T00:24:00;-2.60;99.90
39849;DHT22;25518;47.878;15.914;2023-02-11T00:26:50;-2.50;99.90
39849;DHT22;25518;47.878;15.914;2023-02-11T00:29:40;-2.50;99.90
39849;DHT22;25518;47.878;15.914;2023-02-11T00:32:30;-2.40;99.90
39849;DHT22;25518;47.878;15.914;2023-02-11T00:35:19;-2.50;99.90
39849;DHT22;25518;47.878;15.914;2023-02-11T00:38:09;-2.40;99.90
39849;DHT22;25518;47.878;15.914;2023-02-11T00:40:58;-2.60;99.90
39849;DHT22;25518;47.878;15.914;2023-02-11T00:43:48;-2.60;99.90
39849;DHT22;25518;47.878;15.914;2023-02-11T00:46:38;-2.70;99.90
39849;DHT22;25518;47.878;15.914;2023-02-11T00:49:27;-2.90;99.90
39849;DHT22;25518;47.878;15.914;2023-02-11T00:52:17;-2.90;99.90
39849;DHT22;25518;47.878;15.914;2023-02-11T00:55:07;-2.80;99.90
39849;DHT22;25518;47.878;15.914;2023-02-11T00:57:57;-2.90;99.90
39849;DHT22;25518;47.878;15.914;2023-02-11T01:00:48;-2.90;99.90
39849;DHT22;25518;47.878;15.914;2023-02-11T01:03:37;-2.80;99.90
39849;DHT22;25518;47.878;15.914;2023-02-11T01:06:27;-2.80;99.90
39849;DHT22;25518;47.878;15.914;2023-02-11T01:09:17;-2.90;99.90
39849;DHT22;25518;47.878;15.914;2023-02-11T01:12:07;-2.80;99.90
39849;DHT22;25518;47.878;15.914;2023-02-11T01:14:57;-2.80;99.90
39849;DHT22;25518;47.878;15.914;2023-02-11T01:17:47;-2.90;99.90
39849;DHT22;25518;47.878;15.914;2023-02-11T01:20:37;-2.90;99.90
39849;DHT22;25518;47.878;15.914;2023-02-11T01:23:26;-2.90;99.90
39849;DHT22;25518;47.878;15.914;2023-02-11T01:26:16;-2.80;99.90
39849;DHT22;25518;47.878;15.914;2023-02-11T01:29:06;-2.80;99.90
39849;DHT22;25518;47.878;15.914;2023-02-11T01:31:55;-3.00;99.90
39849;DHT22;25518;47.878;15.914;2023-02-11T01:34:45;-3.00;99.90
39849;DHT22;25518;47.878;15.914;2023-02-11T01:37:34;-3.00;99.90
39849;DHT22;25518;47.878;15.914;2023-02-11T01:40:24;-3.10;99.90
39849;DHT22;25518;47.878;15.914;2023-02-11T01:43:14;-3.40;99.90
39849;DHT22;25518;47.878;15.914;2023-02-11T01:49:10;-3.30;99.90
39849;DHT22;25518;47.878;15.914;2023-02-11T01:52:04;-3.30;99.90
39849;DHT22;25518;47.878;15.914;2023-02-11T01:54:59;-3.30;99.90
39849;DHT22;25518;47.878;15.914;2023-02-11T01:58:10;-3.30;99.90
39849;DHT22;25518;47.878;15.914;2023-02-11T02:01:00;-3.60;99.90
39849;DHT22;25518;47.878;15.914;2023-02-11T02:03:56;-3.70;99.90
39849;DHT22;25518;47.878;15.914;2023-02-11T02:06:58;-3.50;99.90
39849;DHT22;25518;47.878;15.914;2023-02-11T02:09:57;-3.50;99.90
39849;DHT22;25518;47.878;15.914;2023-02-11T02:12:47;-3.60;99.90
39849;DHT22;25518;47.878;15.914;2023-02-11T02:15:39;-3.60;99.90
39849;DHT22;25518;47.878;15.914;2023-02-11T02:28:18;-3.70;99.90
39849;DHT22;25518;47.878;15.914;2023-02-11T02:31:39;-3.60;99.90
39849;DHT22;25518;47.878;15.914;2023-02-11T02:34:47;-3.50;99.90
39849;DHT22;25518;47.878;15.914;2023-02-11T02:37:54;-3.60;99.90
39849;DHT22;25518;47.878;15.914;2023-02-11T02:40:51;-3.70;99.90
39849;DHT22;25518;47.878;15.914;2023-02-11T02:43:47;-3.60;99.90
39849;DHT22;25518;47.878;15.914;2023-02-11T02:46:36;-3.70;99.90
39849;DHT22;25518;47.878;15.914;2023-02-11T02:49:26;-3.70;99.90
39849;DHT22;25518;47.878;15.914;2023-02-11T03:01:21;-3.60;99.90
39849;DHT22;25518;47.878;15.914;2023-02-11T03:18:21;-3.50;99.90
39849;DHT22;25518;47.878;15.914;2023-02-11T03:21:13;-3.40;99.90
39849;DHT22;25518;47.878;15.914;2023-02-11T03:24:09;-3.40;99.90
39849;DHT22;25518;47.878;15.914;2023-02-11T03:27:23;-3.50;99.90
39849;DHT22;25518;47.878;15.914;2023-02-11T03:30:27;-3.40;99.90
39849;DHT22;25518;47.878;15.914;2023-02-11T03:33:26;-3.50;99.90
39849;DHT22;25518;47.878;15.914;2023-02-11T03:36:21;-3.40;99.90
39849;DHT22;25518;47.878;15.914;2023-02-11T03:39:16;-3.30;99.90
39849;DHT22;25518;47.878;15.914;2023-02-11T03:42:10;-3.60;99.90
39849;DHT22;25518;47.878;15.914;2023-02-11T03:45:05;-3.60;99.90
39849;DHT22;25518;47.878;15.914;2023-02-11T03:48:07;-3.80;99.90
39849;DHT22;25518;47.878;15.914;2023-02-11T03:51:03;-3.90;99.90
39849;DHT22;25518;47.878;15.914;2023-02-11T03:53:55;-3.80;99.90
39849;DHT22;25518;47.878;15.914;2023-02-11T03:56:51;-3.80;99.90
39849;DHT22;25518;47.878;15.914;2023-02-11T04:02:40;-3.70;99.90
39849;DHT22;25518;47.878;15.914;2023-02-11T04:05:31;-3.70;99.90
39849;DHT22;25518;47.878;15.914;2023-02-11T04:08:20;-3.60;99.90
39849;DHT22;25518;47.878;15.914;2023-02-11T04:11:10;-3.50;99.90
39849;DHT22;25518;47.878;15.914;2023-02-11T04:14:00;-3.30;99.90
39849;DHT22;25518;47.878;15.914;2023-02-11T04:16:49;-3.30;99.90
39849;DHT22;25518;47.878;15.914;2023-02-11T04:19:39;-3.30;99.90
39849;DHT22;25518;47.878;15.914;2023-02-11T04:22:29;-3.30;99.90
39849;DHT22;25518;47.878;15.914;2023-02-11T04:25:18;-3.10;99.90
39849;DHT22;25518;47.878;15.914;2023-02-11T04:28:08;-3.10;99.90
39849;DHT22;25518;47.878;15.914;2023-02-11T04:30:58;-3.10;99.90
39849;DHT22;25518;47.878;15.914;2023-02-11T04:33:47;-3.10;99.90
39849;DHT22;25518;47.878;15.914;2023-02-11T04:36:37;-3.20;99.90
39849;DHT22;25518;47.878;15.914;2023-02-11T04:39:26;-3.10;99.90
39849;DHT22;25518;47.878;15.914;2023-02-11T04:42:16;-3.00;99.90
39849;DHT22;25518;47.878;15.914;2023-02-11T04:45:06;-3.10;99.90
39849;DHT22;25518;47.878;15.914;2023-02-11T04:47:56;-3.10;99.90
39849;DHT22;25518;47.878;15.914;2023-02-11T04:50:46;-3.20;99.90
39849;DHT22;25518;47.878;15.914;2023-02-11T04:53:35;-3.10;99.90
39849;DHT22;25518;47.878;15.914;2023-02-11T04:56:25;-3.20;99.90
39849;DHT22;25518;47.878;15.914;2023-02-11T04:59:15;-3.10;99.90
39849;DHT22;25518;47.878;15.914;2023-02-11T05:02:04;-3.10;99.90
39849;DHT22;25518;47.878;15.914;2023-02-11T05:04:54;-3.10;99.90
39849;DHT22;25518;47.878;15.914;2023-02-11T05:07:44;-3.30;99.90
39849;DHT22;25518;47.878;15.914;2023-02-11T05:10:34;-3.30;99.90
39849;DHT22;25518;47.878;15.914;2023-02-11T05:13:24;-3.20;99.90
39849;DHT22;25518;47.878;15.914;2023-02-11T05:16:16;-3.10;99.90
39849;DHT22;25518;47.878;15.914;2023-02-11T05:19:05;-3.00;99.90
39849;DHT22;25518;47.878;15.914;2023-02-11T05:21:55;-2.80;99.90
39849;DHT22;25518;47.878;15.914;2023-02-11T05:24:45;-2.70;99.90
39849;DHT22;25518;47.878;15.914;2023-02-11T05:27:34;-2.50;99.90
39849;DHT22;25518;47.878;15.914;2023-02-11T05:30:24;-2.40;99.90
39849;DHT22;25518;47.878;15.914;2023-02-11T05:33:13;-2.20;99.90
39849;DHT22;25518;47.878;15.914;2023-02-11T05:36:06;-2.00;99.90
39849;DHT22;25518;47.878;15.914;2023-02-11T05:38:56;-1.60;99.90
39849;DHT22;25518;47.878;15.914;2023-02-11T05:41:46;-1.20;99.90
39849;DHT22;25518;47.878;15.914;2023-02-11T05:44:36;-0.70;99.90
39849;DHT22;25518;47.878;15.914;2023-02-11T05:47:25;-0.70;99.90
39849;DHT22;25518;47.878;15.914;2023-02-11T05:50:15;-0.60;99.90
39849;DHT22;25518;47.878;15.914;2023-02-11T05:53:05;-0.50;99.90
39849;DHT22;25518;47.878;15.914;2023-02-11T05:55:55;-0.50;99.90
39849;DHT22;25518;47.878;15.914;2023-02-11T05:58:44;-0.50;99.90
39849;DHT22;25518;47.878;15.914;2023-02-11T06:01:34;-0.40;99.90
39849;DHT22;25518;47.878;15.914;2023-02-11T06:04:23;-0.20;99.90
39849;DHT22;25518;47.878;15.914;2023-02-11T06:07:13;0.20;99.90
39849;DHT22;25518;47.878;15.914;2023-02-11T06:10:03;0.60;99.90
39849;DHT22;25518;47.878;15.914;2023-02-11T06:12:53;0.90;99.90
39849;DHT22;25518;47.878;15.914;2023-02-11T06:15:42;0.90;99.90
39849;DHT22;25518;47.878;15.914;2023-02-11T06:18:32;1.00;99.90
39849;DHT22;25518;47.878;15.914;2023-02-11T06:21:22;1.00;99.90
39849;DHT22;25518;47.878;15.914;2023-02-11T06:24:12;1.20;99.90
39849;DHT22;25518;47.878;15.914;2023-02-11T06:27:03;1.20;99.90
39849;DHT22;25518;47.878;15.914;2023-02-11T06:29:53;1.20;99.90
39849;DHT22;25518;47.878;15.914;2023-02-11T06:32:42;1.20;99.90
39849;DHT22;25518;47.878;15.914;2023-02-11T06:35:32;1.30;99.90
39849;DHT22;25518;47.878;15.914;2023-02-11T06:38:23;1.40;99.90
39849;DHT22;25518;47.878;15.914;2023-02-11T06:41:15;1.50;99.90
39849;DHT22;25518;47.878;15.914;2023-02-11T06:44:05;1.50;99.90
39849;DHT22;25518;47.878;15.914;2023-02-11T06:46:54;1.50;99.90
39849;DHT22;25518;47.878;15.914;2023-02-11T06:49:45;1.50;99.90
39849;DHT22;25518;47.878;15.914;2023-02-11T06:52:34;1.70;99.90
39849;DHT22;25518;47.878;15.914;2023-02-11T06:55:24;1.70;99.90
39849;DHT22;25518;47.878;15.914;2023-02-11T06:58:14;1.70;99.90
39849;DHT22;25518;47.878;15.914;2023-02-11T07:01:05;1.70;99.90
39849;DHT22;25518;47.878;15.914;2023-02-11T07:03:55;1.70;99.90
39849;DHT22;25518;47.878;15.914;2023-02-11T07:06:44;1.60;99.90
39849;DHT22;25518;47.878;15.914;2023-02-11T07:09:34;1.60;99.90
39849;DHT22;25518;47.878;15.914;2023-02-11T07:12:24;1.70;99.90
39849;DHT22;25518;47.878;15.914;2023-02-11T07:15:13;1.60;99.90
39849;DHT22;25518;47.878;15.914;2023-02-11T07:18:03;1.70;99.90
39849;DHT22;25518;47.878;15.914;2023-02-11T07:20:52;1.80;99.90
39849;DHT22;25518;47.878;15.914;2023-02-11T07:23:42;1.70;99.90
39849;DHT22;25518;47.878;15.914;2023-02-11T07:26:31;1.80;99.90
39849;DHT22;25518;47.878;15.914;2023-02-11T07:29:21;1.90;99.90
39849;DHT22;25518;47.878;15.914;2023-02-11T07:32:11;2.00;99.90
39849;DHT22;25518;47.878;15.914;2023-02-11T07:35:01;2.20;99.90
39849;DHT22;25518;47.878;15.914;2023-02-11T07:37:52;2.20;99.90
39849;DHT22;25518;47.878;15.914;2023-02-11T07:40:41;2.20;99.90
39849;DHT22;25518;47.878;15.914;2023-02-11T07:43:32;2.20;99.90
39849;DHT22;25518;47.878;15.914;2023-02-11T07:46:25;2.10;99.90
39849;DHT22;25518;47.878;15.914;2023-02-11T07:49:16;2.10;99.90
39849;DHT22;25518;47.878;15.914;2023-02-11T07:52:09;2.30;99.90
39849;DHT22;25518;47.878;15.914;2023-02-11T07:54:59;1.60;99.90
39849;DHT22;25518;47.878;15.914;2023-02-11T08:00:22;2.40;99.90
39849;DHT22;25518;47.878;15.914;2023-02-11T08:03:13;-2.00;99.90
39849;DHT22;25518;47.878;15.914;2023-02-11T08:23:42;2.90;99.90
39849;DHT22;25518;47.878;15.914;2023-02-11T08:26:33;3.20;99.90
39849;DHT22;25518;47.878;15.914;2023-02-11T08:29:23;3.00;99.90
39849;DHT22;25518;47.878;15.914;2023-02-11T08:32:13;2.90;99.90
39849;DHT22;25518;47.878;15.914;2023-02-11T08:35:03;3.00;99.90
39849;DHT22;25518;47.878;15.914;2023-02-11T08:37:53;3.10;99.90
39849;DHT22;25518;47.878;15.914;2023-02-11T08:40:42;3.10;99.90
39849;DHT22;25518;47.878;15.914;2023-02-11T08:43:33;3.10;99.90
39849;DHT22;25518;47.878;15.914;2023-02-11T08:46:22;3.10;99.90
39849;DHT22;25518;47.878;15.914;2023-02-11T08:49:13;3.10;99.90
39849;DHT22;25518;47.878;15.914;2023-02-11T08:52:02;3.10;99.90
39849;DHT22;25518;47.878;15.914;2023-02-11T08:54:52;3.10;99.90
39849;DHT22;25518;47.878;15.914;2023-02-11T08:57:42;3.10;99.90
39849;DHT22;25518;47.878;15.914;2023-02-11T09:00:32;3.10;99.90
39849;DHT22;25518;47.878;15.914;2023-02-11T09:03:21;3.30;99.90
39849;DHT22;25518;47.878;15.914;2023-02-11T09:06:11;3.40;99.90
39849;DHT22;25518;47.878;15.914;2023-02-11T09:09:02;3.50;99.90
39849;DHT22;25518;47.878;15.914;2023-02-11T09:11:51;3.60;99.20
39849;DHT22;25518;47.878;15.914;2023-02-11T09:14:45;3.60;99.90
39849;DHT22;25518;47.878;15.914;2023-02-11T09:17:35;3.70;98.70
39849;DHT22;25518;47.878;15.914;2023-02-11T09:20:26;3.70;98.80
39849;DHT22;25518;47.878;15.914;2023-02-11T09:23:16;3.70;99.90
39849;DHT22;25518;47.878;15.914;2023-02-11T09:26:07;4.10;98.10
39849;DHT22;25518;47.878;15.914;2023-02-11T09:28:58;4.00;98.40
39849;DHT22;25518;47.878;15.914;2023-02-11T09:31:48;4.20;97.50
39849;DHT22;25518;47.878;15.914;2023-02-11T09:34:38;4.20;97.20
39849;DHT22;25518;47.878;15.914;2023-02-11T09:37:28;4.30;97.60
39849;DHT22;25518;47.878;15.914;2023-02-11T09:40:17;4.50;94.90
39849;DHT22;25518;47.878;15.914;2023-02-11T09:43:16;4.40;94.50
39849;DHT22;25518;47.878;15.914;2023-02-11T09:46:13;4.60;95.80
39849;DHT22;25518;47.878;15.914;2023-02-11T09:49:04;4.50;95.90
39849;DHT22;25518;47.878;15.914;2023-02-11T09:52:04;4.10;95.80
39849;DHT22;25518;47.878;15.914;2023-02-11T09:55:01;4.50;95.40
39849;DHT22;25518;47.878;15.914;2023-02-11T09:57:52;4.50;93.60
39849;DHT22;25518;47.878;15.914;2023-02-11T10:00:46;4.50;94.70
39849;DHT22;25518;47.878;15.914;2023-02-11T10:15:49;4.90;93.50
39849;DHT22;25518;47.878;15.914;2023-02-11T10:19:05;4.90;92.00
39849;DHT22;25518;47.878;15.914;2023-02-11T10:24:55;5.30;89.80
39849;DHT22;25518;47.878;15.914;2023-02-11T10:27:49;5.20;91.20
39849;DHT22;25518;47.878;15.914;2023-02-11T10:31:00;5.10;89.60
39849;DHT22;25518;47.878;15.914;2023-02-11T10:34:00;5.10;91.30
39849;DHT22;25518;47.878;15.914;2023-02-11T10:36:51;4.90;93.00
39849;DHT22;25518;47.878;15.914;2023-02-11T10:39:41;5.20;90.70
39849;DHT22;25518;47.878;15.914;2023-02-11T10:42:30;5.30;89.60
39849;DHT22;25518;47.878;15.914;2023-02-11T10:48:34;5.60;86.70
39849;DHT22;25518;47.878;15.914;2023-02-11T10:51:27;5.70;86.20
39849;DHT22;25518;47.878;15.914;2023-02-11T10:54:18;5.80;84.70
39849;DHT22;25518;47.878;15.914;2023-02-11T10:57:17;5.70;83.30
39849;DHT22;25518;47.878;15.914;2023-02-11T11:03:22;6.10;82.40
39849;DHT22;25518;47.878;15.914;2023-02-11T11:06:13;6.20;83.70
39849;DHT22;25518;47.878;15.914;2023-02-11T11:09:03;6.20;83.30
39849;DHT22;25518;47.878;15.914;2023-02-11T11:11:53;6.00;85.60
39849;DHT22;25518;47.878;15.914;2023-02-11T11:14:54;5.50;86.90
39849;DHT22;25518;47.878;15.914;2023-02-11T11:17:44;5.90;81.90
39849;DHT22;25518;47.878;15.914;2023-02-11T11:20:34;6.00;83.20
39849;DHT22;25518;47.878;15.914;2023-02-11T11:23:25;5.90;79.30
39849;DHT22;25518;47.878;15.914;2023-02-11T11:26:16;6.10;83.10
39849;DHT22;25518;47.878;15.914;2023-02-11T11:29:12;6.30;80.10
39849;DHT22;25518;47.878;15.914;2023-02-11T11:32:12;6.20;88.50
39849;DHT22;25518;47.878;15.914;2023-02-11T11:35:19;6.00;84.60
39849;DHT22;25518;47.878;15.914;2023-02-11T11:38:13;5.70;86.70
39849;DHT22;25518;47.878;15.914;2023-02-11T11:44:25;6.00;82.80
39849;DHT22;25518;47.878;15.914;2023-02-11T11:47:21;2.10;83.30
39849;DHT22;25518;47.878;15.914;2023-02-11T11:53:34;6.00;83.90
39849;DHT22;25518;47.878;15.914;2023-02-11T11:56:26;6.00;89.20
39849;DHT22;25518;47.878;15.914;2023-02-11T11:59:17;6.20;88.90
39849;DHT22;25518;47.878;15.914;2023-02-11T12:02:17;6.40;87.40
39849;DHT22;25518;47.878;15.914;2023-02-11T12:08:37;6.70;86.40
39849;DHT22;25518;47.878;15.914;2023-02-11T12:17:51;6.40;90.30
39849;DHT22;25518;47.878;15.914;2023-02-11T12:21:10;6.30;90.80
39849;DHT22;25518;47.878;15.914;2023-02-11T12:27:05;6.20;93.10
39849;DHT22;25518;47.878;15.914;2023-02-11T12:30:40;3.70;92.20
39849;DHT22;25518;47.878;15.914;2023-02-11T13:08:48;6.80;88.30
39849;DHT22;25518;47.878;15.914;2023-02-11T13:11:57;6.70;89.70
39849;DHT22;25518;47.878;15.914;2023-02-11T13:20:50;6.70;88.60
39849;DHT22;25518;47.878;15.914;2023-02-11T13:24:43;6.60;90.70
39849;DHT22;25518;47.878;15.914;2023-02-11T13:30:33;6.30;91.70
39849;DHT22;25518;47.878;15.914;2023-02-11T13:33:41;6.30;90.00
39849;DHT22;25518;47.878;15.914;2023-02-11T13:36:32;9.50;90.40
39849;DHT22;25518;47.878;15.914;2023-02-11T13:39:23;6.30;90.30
39849;DHT22;25518;47.878;15.914;2023-02-11T13:42:15;6.30;88.80
39849;DHT22;25518;47.878;15.914;2023-02-11T13:48:20;10.30;91.70
39849;DHT22;25518;47.878;15.914;2023-02-11T13:51:14;4.50;92.10
39849;DHT22;25518;47.878;15.914;2023-02-11T14:07:20;6.70;82.50
39849;DHT22;25518;47.878;15.914;2023-02-11T14:17:26;6.70;88.60
39849;DHT22;25518;47.878;15.914;2023-02-11T14:20:37;6.40;84.70
39849;DHT22;25518;47.878;15.914;2023-02-11T14:33:00;6.10;82.50
39849;DHT22;25518;47.878;15.914;2023-02-11T14:36:08;6.10;81.30
39849;DHT22;25518;47.878;15.914;2023-02-11T14:39:22;6.10;81.20
39849;DHT22;25518;47.878;15.914;2023-02-11T14:45:34;6.10;78.60
39849;DHT22;25518;47.878;15.914;2023-02-11T14:51:28;5.80;81.10
39849;DHT22;25518;47.878;15.914;2023-02-11T14:54:25;5.70;79.80
39849;DHT22;25518;47.878;15.914;2023-02-11T15:00:02;5.90;77.70
39849;DHT22;25518;47.878;15.914;2023-02-11T15:05:54;6.10;80.30
39849;DHT22;25518;47.878;15.914;2023-02-11T15:11:41;6.00;81.50
39849;DHT22;25518;47.878;15.914;2023-02-11T15:14:33;6.00;79.70
39849;DHT22;25518;47.878;15.914;2023-02-11T15:17:27;3.50;76.00
39849;DHT22;25518;47.878;15.914;2023-02-11T15:20:23;5.90;83.40
39849;DHT22;25518;47.878;15.914;2023-02-11T15:23:21;7.50;79.70
39849;DHT22;25518;47.878;15.914;2023-02-11T15:26:13;5.60;83.00
39849;DHT22;25518;47.878;15.914;2023-02-11T15:29:13;5.50;82.10
39849;DHT22;25518;47.878;15.914;2023-02-11T15:32:13;5.60;78.90
39849;DHT22;25518;47.878;15.914;2023-02-11T15:35:06;5.50;79.10
39849;DHT22;25518;47.878;15.914;2023-02-11T15:37:58;6.50;83.40
39849;DHT22;25518;47.878;15.914;2023-02-11T15:41:04;5.40;82.30
39849;DHT22;25518;47.878;15.914;2023-02-11T15:43:55;5.50;81.10
39849;DHT22;25518;47.878;15.914;2023-02-11T15:46:45;5.40;80.30
39849;DHT22;25518;47.878;15.914;2023-02-11T15:49:35;6.20;81.70
39849;DHT22;25518;47.878;15.914;2023-02-11T15:52:27;5.30;86.20
39849;DHT22;25518;47.878;15.914;2023-02-11T15:55:18;5.50;83.20
39849;DHT22;25518;47.878;15.914;2023-02-11T15:58:08;5.20;83.10
39849;DHT22;25518;47.878;15.914;2023-02-11T16:00:59;5.20;82.80
39849;DHT22;25518;47.878;15.914;2023-02-11T16:03:49;5.10;85.50
39849;DHT22;25518;47.878;15.914;2023-02-11T16:06:41;2.40;87.00
39849;DHT22;25518;47.878;15.914;2023-02-11T16:09:34;4.90;85.70
39849;DHT22;25518;47.878;15.914;2023-02-11T16:12:25;4.90;85.70
39849;DHT22;25518;47.878;15.914;2023-02-11T16:18:33;4.80;85.70
39849;DHT22;25518;47.878;15.914;2023-02-11T16:33:31;4.90;84.90
39849;DHT22;25518;47.878;15.914;2023-02-11T16:36:21;4.70;84.90
39849;DHT22;25518;47.878;15.914;2023-02-11T16:39:11;3.90;83.40
39849;DHT22;25518;47.878;15.914;2023-02-11T16:42:02;4.40;86.20
39849;DHT22;25518;47.878;15.914;2023-02-11T16:44:52;4.90;83.70
39849;DHT22;25518;47.878;15.914;2023-02-11T16:47:45;4.50;84.50
39849;DHT22;25518;47.878;15.914;2023-02-11T17:03:04;4.50;88.70
39849;DHT22;25518;47.878;15.914;2023-02-11T17:14:28;4.70;88.00
39849;DHT22;25518;47.878;15.914;2023-02-11T17:28:45;4.50;91.50
39849;DHT22;25518;47.878;15.914;2023-02-11T17:31:37;4.50;92.30
39849;DHT22;25518;47.878;15.914;2023-02-11T17:34:27;4.70;91.90
39849;DHT22;25518;47.878;15.914;2023-02-11T17:37:17;4.70;91.90
39849;DHT22;25518;47.878;15.914;2023-02-11T17:40:07;4.70;91.70
39849;DHT22;25518;47.878;15.914;2023-02-11T17:42:57;4.70;92.10
39849;DHT22;25518;47.878;15.914;2023-02-11T17:45:47;4.70;92.10
39849;DHT22;25518;47.878;15.914;2023-02-11T17:48:37;4.70;92.30
39849;DHT22;25518;47.878;15.914;2023-02-11T17:51:27;4.70;93.30
39849;DHT22;25518;47.878;15.914;2023-02-11T17:54:18;4.60;92.80
39849;DHT22;25518;47.878;15.914;2023-02-11T17:57:09;4.70;92.60
39849;DHT22;25518;47.878;15.914;2023-02-11T18:00:00;4.70;92.70
39849;DHT22;25518;47.878;15.914;2023-02-11T18:02:49;4.80;92.50
39849;DHT22;25518;47.878;15.914;2023-02-11T18:05:39;4.70;93.80
39849;DHT22;25518;47.878;15.914;2023-02-11T18:08:29;4.70;93.40
39849;DHT22;25518;47.878;15.914;2023-02-11T18:11:18;4.70;94.00
39849;DHT22;25518;47.878;15.914;2023-02-11T18:14:10;4.70;93.30
39849;DHT22;25518;47.878;15.914;2023-02-11T18:17:00;4.80;93.40
39849;DHT22;25518;47.878;15.914;2023-02-11T18:19:49;4.90;94.00
39849;DHT22;25518;47.878;15.914;2023-02-11T18:22:41;4.70;94.90
39849;DHT22;25518;47.878;15.914;2023-02-11T18:25:33;4.80;96.00
39849;DHT22;25518;47.878;15.914;2023-02-11T18:28:23;4.80;96.50
39849;DHT22;25518;47.878;15.914;2023-02-11T18:31:13;4.70;96.90
39849;DHT22;25518;47.878;15.914;2023-02-11T18:34:04;4.70;97.80
39849;DHT22;25518;47.878;15.914;2023-02-11T18:36:55;4.60;97.90
39849;DHT22;25518;47.878;15.914;2023-02-11T18:39:45;4.50;99.20
39849;DHT22;25518;47.878;15.914;2023-02-11T18:42:35;4.50;99.50
39849;DHT22;25518;47.878;15.914;2023-02-11T18:45:25;4.40;99.90
39849;DHT22;25518;47.878;15.914;2023-02-11T18:48:17;4.60;99.90
39849;DHT22;25518;47.878;15.914;2023-02-11T18:51:09;4.40;99.90
39849;DHT22;25518;47.878;15.914;2023-02-11T18:53:58;4.50;99.90
39849;DHT22;25518;47.878;15.914;2023-02-11T18:56:49;4.60;99.90
39849;DHT22;25518;47.878;15.914;2023-02-11T18:59:39;4.60;99.90
39849;DHT22;25518;47.878;15.914;2023-02-11T19:02:28;4.40;99.90
39849;DHT22;25518;47.878;15.914;2023-02-11T19:05:18;4.60;99.90
39849;DHT22;25518;47.878;15.914;2023-02-11T19:08:08;4.60;99.90
39849;DHT22;25518;47.878;15.914;2023-02-11T19:10:58;4.50;99.90
39849;DHT22;25518;47.878;15.914;2023-02-11T19:13:47;4.50;99.90
39849;DHT22;25518;47.878;15.914;2023-02-11T19:16:38;4.50;99.90
39849;DHT22;25518;47.878;15.914;2023-02-11T19:19:30;4.50;99.90
39849;DHT22;25518;47.878;15.914;2023-02-11T19:22:20;4.60;99.90
39849;DHT22;25518;47.878;15.914;2023-02-11T19:25:10;4.60;99.90
39849;DHT22;25518;47.878;15.914;2023-02-11T19:28:00;4.50;99.90
39849;DHT22;25518;47.878;15.914;2023-02-11T19:30:51;4.60;99.90
39849;DHT22;25518;47.878;15.914;2023-02-11T19:33:40;4.60;99.90
39849;DHT22;25518;47.878;15.914;2023-02-11T19:36:31;4.50;99.90
39849;DHT22;25518;47.878;15.914;2023-02-11T19:39:20;4.50;99.90
39849;DHT22;25518;47.878;15.914;2023-02-11T19:42:12;4.50;99.90
39849;DHT22;25518;47.878;15.914;2023-02-11T19:45:02;4.40;99.90
39849;DHT22;25518;47.878;15.914;2023-02-11T19:47:55;4.40;99.90
39849;DHT22;25518;47.878;15.914;2023-02-11T19:50:45;4.40;99.90
39849;DHT22;25518;47.878;15.914;2023-02-11T19:53:34;4.30;99.90
39849;DHT22;25518;47.878;15.914;2023-02-11T19:56:24;4.20;99.90
39849;DHT22;25518;47.878;15.914;2023-02-11T19:59:16;4.40;99.90
39849;DHT22;25518;47.878;15.914;2023-02-11T20:02:06;4.30;99.90
39849;DHT22;25518;47.878;15.914;2023-02-11T20:04:55;4.20;99.90
39849;DHT22;25518;47.878;15.914;2023-02-11T20:07:45;4.10;99.90
39849;DHT22;25518;47.878;15.914;2023-02-11T20:10:35;4.00;99.90
39849;DHT22;25518;47.878;15.914;2023-02-11T20:13:24;4.00;99.90
39849;DHT22;25518;47.878;15.914;2023-02-11T20:16:17;4.00;99.90
39849;DHT22;25518;47.878;15.914;2023-02-11T20:19:07;3.90;99.90
39849;DHT22;25518;47.878;15.914;2023-02-11T20:21:57;3.90;99.90
39849;DHT22;25518;47.878;15.914;2023-02-11T20:24:47;4.00;99.90
39849;DHT22;25518;47.878;15.914;2023-02-11T20:27:37;3.80;99.90
39849;DHT22;25518;47.878;15.914;2023-02-11T20:30:27;4.00;99.90
39849;DHT22;25518;47.878;15.914;2023-02-11T20:33:16;3.90;99.90
39849;DHT22;25518;47.878;15.914;2023-02-11T20:36:10;4.10;99.90
39849;DHT22;25518;47.878;15.914;2023-02-11T20:39:03;4.10;99.90
39849;DHT22;25518;47.878;15.914;2023-02-11T20:41:53;4.00;99.90
39849;DHT22;25518;47.878;15.914;2023-02-11T20:44:43;4.10;99.90
39849;DHT22;25518;47.878;15.914;2023-02-11T20:47:32;4.10;99.90
39849;DHT22;25518;47.878;15.914;2023-02-11T20:50:22;4.00;99.90
39849;DHT22;25518;47.878;15.914;2023-02-11T20:53:11;4.00;99.90
39849;DHT22;25518;47.878;15.914;2023-02-11T20:56:04;4.10;99.90
39849;DHT22;25518;47.878;15.914;2023-02-11T20:58:56;4.00;99.90
39849;DHT22;25518;47.878;15.914;2023-02-11T21:01:51;3.90;99.90
39849;DHT22;25518;47.878;15.914;2023-02-11T21:04:43;4.00;99.90
39849;DHT22;25518;47.878;15.914;2023-02-11T21:07:33;4.00;99.90
39849;DHT22;25518;47.878;15.914;2023-02-11T21:10:22;4.00;99.90
39849;DHT22;25518;47.878;15.914;2023-02-11T21:13:12;3.90;99.90
39849;DHT22;25518;47.878;15.914;2023-02-11T21:16:01;3.90;99.90
39849;DHT22;25518;47.878;15.914;2023-02-11T21:18:52;3.80;99.90
39849;DHT22;25518;47.878;15.914;2023-02-11T21:21:42;3.60;99.90
39849;DHT22;25518;47.878;15.914;2023-02-11T21:24:31;3.60;99.90
39849;DHT22;25518;47.878;15.914;2023-02-11T21:27:21;3.50;99.90
39849;DHT22;25518;47.878;15.914;2023-02-11T21:30:12;3.50;99.90
39849;DHT22;25518;47.878;15.914;2023-02-11T21:33:02;3.40;99.90
39849;DHT22;25518;47.878;15.914;2023-02-11T21:35:55;3.40;99.90
39849;DHT22;25518;47.878;15.914;2023-02-11T21:38:45;3.40;99.90
39849;DHT22;25518;47.878;15.914;2023-02-11T21:41:34;3.30;99.90
39849;DHT22;25518;47.878;15.914;2023-02-11T21:44:24;3.30;99.90
39849;DHT22;25518;47.878;15.914;2023-02-11T21:47:14;3.20;99.90
39849;DHT22;25518;47.878;15.914;2023-02-11T21:50:04;3.10;99.90
39849;DHT22;25518;47.878;15.914;2023-02-11T21:52:54;3.20;99.90
39849;DHT22;25518;47.878;15.914;2023-02-11T21:55:43;3.20;99.90
39849;DHT22;25518;47.878;15.914;2023-02-11T21:58:34;3.10;99.90
39849;DHT22;25518;47.878;15.914;2023-02-11T22:01:26;3.10;99.90
39849;DHT22;25518;47.878;15.914;2023-02-11T22:04:16;3.10;99.90